Time;durP1;ratioP1;P1;durP2;ratioP2;P2;SDS_P1;SDS_P2;PMS_P1;PMS_P2;Temp;Humidity;BMP_temperature;BMP_pressure;BME280_temperature;BME280_humidity;BME280_pressure;Samples;Min_cycle;Max_cycle;Signal;HPM_P1;HPM_P2
2023/04/16 00:00:06;;;;;;;20.92;11.35;;;9.30;99.90;;;;;;5011114;28;20018;-51
2023/04/16 00:02:32;;;;;;;21.20;9.77;;;9.20;99.90;;;;;;5011102;28;20024;-54
2023/04/16 00:04:58;;;;;;;17.17;10.55;;;9.20;99.90;;;;;;5010991;28;20042;-55
2023/04/16 00:07:24;;;;;;;15.90;9.32;;;9.30;99.90;;;;;;5011174;28;20050;-56
2023/04/16 00:09:49;;;;;;;18.15;8.77;;;9.20;99.90;;;;;;5011208;28;20481;-54
2023/04/16 00:12:15;;;;;;;16.08;9.02;;;9.20;99.90;;;;;;5011047;28;20133;-57
2023/04/16 00:14:42;;;;;;;12.55;8.75;;;9.10;99.90;;;;;;5011152;28;20380;-53
2023/04/16 00:17:08;;;;;;;16.50;9.55;;;9.20;99.90;;;;;;5010782;28;20036;-57
2023/04/16 00:19:34;;;;;;;16.40;9.73;;;9.10;99.90;;;;;;5010278;28;20025;-57
2023/04/16 00:21:59;;;;;;;17.73;9.85;;;9.10;99.90;;;;;;5010790;28;20283;-53
2023/04/16 00:24:25;;;;;;;16.77;9.90;;;9.10;99.90;;;;;;5010951;28;20034;-58
2023/04/16 00:26:51;;;;;;;19.00;10.25;;;9.20;99.90;;;;;;5010759;28;20030;-59
2023/04/16 00:29:16;;;;;;;16.73;9.52;;;9.10;99.90;;;;;;5010588;28;20476;-59
2023/04/16 00:31:42;;;;;;;12.65;8.52;;;9.10;99.90;;;;;;5010589;28;20030;-57
2023/04/16 00:34:08;;;;;;;14.68;8.95;;;9.00;99.90;;;;;;5010865;28;20168;-54
2023/04/16 00:36:33;;;;;;;18.65;9.25;;;8.90;99.90;;;;;;5010947;28;20401;-56
2023/04/16 00:38:59;;;;;;;15.57;9.30;;;8.80;99.90;;;;;;5010793;28;20102;-55
2023/04/16 00:41:25;;;;;;;14.50;8.43;;;8.80;99.90;;;;;;5011070;28;20374;-53
2023/04/16 00:43:52;;;;;;;11.35;7.70;;;8.80;99.90;;;;;;5009553;28;20499;-53
2023/04/16 00:46:22;;;;;;;15.43;7.80;;;8.70;99.90;;;;;;5010592;28;20092;-56
2023/04/16 00:48:49;;;;;;;13.05;7.07;;;8.50;99.90;;;;;;5010967;28;20030;-54
2023/04/16 00:51:15;;;;;;;11.07;7.35;;;8.50;99.90;;;;;;5009346;28;20038;-54
2023/04/16 00:53:42;;;;;;;10.88;7.10;;;8.40;99.90;;;;;;5010894;28;20026;-54
2023/04/16 00:56:09;;;;;;;13.38;8.20;;;8.30;99.90;;;;;;5009576;28;20084;-56
2023/04/16 00:58:35;;;;;;;15.02;8.95;;;8.30;99.90;;;;;;5009969;28;20498;-55
2023/04/16 01:01:00;;;;;;;16.00;8.90;;;8.30;99.90;;;;;;5010577;28;20022;-57
2023/04/16 01:03:37;;;;;;;13.75;8.60;;;8.30;99.90;;;;;;5010422;28;20018;-57
2023/04/16 01:06:03;;;;;;;16.83;10.88;;;8.20;99.90;;;;;;5010272;28;20509;-57
2023/04/16 01:08:28;;;;;;;14.88;9.50;;;8.20;99.90;;;;;;5010219;28;20069;-55
2023/04/16 01:10:54;;;;;;;18.80;10.55;;;8.20;99.90;;;;;;5010463;28;20692;-57
2023/04/16 01:13:19;;;;;;;19.83;10.25;;;8.20;99.90;;;;;;5009051;28;20028;-58
2023/04/16 01:15:45;;;;;;;23.65;9.70;;;8.30;99.90;;;;;;5010413;28;20018;-53
2023/04/16 01:18:15;;;;;;;16.48;10.43;;;8.20;99.90;;;;;;5010574;28;20026;-54
2023/04/16 01:20:41;;;;;;;14.45;9.80;;;8.20;99.90;;;;;;5008977;28;20034;-56
2023/04/16 01:23:06;;;;;;;18.20;9.95;;;8.30;99.90;;;;;;5010304;28;20033;-55
2023/04/16 01:25:32;;;;;;;14.48;8.70;;;8.30;99.90;;;;;;5010353;28;20065;-55
2023/04/16 01:27:58;;;;;;;13.02;8.38;;;8.30;99.90;;;;;;5010265;28;20060;-55
2023/04/16 01:30:24;;;;;;;17.00;8.63;;;8.20;99.90;;;;;;5012530;28;20050;-54
2023/04/16 01:32:50;;;;;;;13.20;8.80;;;8.10;99.90;;;;;;5014098;28;20473;-56
2023/04/16 01:35:19;;;;;;;13.90;8.82;;;8.10;99.90;;;;;;5014465;28;20555;-51
2023/04/16 01:37:45;;;;;;;13.02;8.15;;;8.10;99.90;;;;;;5014176;28;20091;-53
2023/04/16 01:40:11;;;;;;;13.60;8.25;;;8.10;99.90;;;;;;5012940;28;20549;-54
2023/04/16 01:42:37;;;;;;;16.17;8.40;;;8.10;99.90;;;;;;5013989;28;20092;-52
2023/04/16 01:45:03;;;;;;;11.93;8.85;;;8.00;99.90;;;;;;5013674;28;20157;-54
2023/04/16 01:47:29;;;;;;;11.93;8.30;;;8.00;99.90;;;;;;5012218;28;20038;-56
2023/04/16 01:49:55;;;;;;;13.40;8.45;;;7.90;99.90;;;;;;5013625;28;20045;-54
2023/04/16 01:52:20;;;;;;;14.55;8.13;;;7.90;99.90;;;;;;5011776;28;20042;-55
2023/04/16 01:54:46;;;;;;;13.75;8.25;;;7.90;99.90;;;;;;5013466;28;21486;-55
2023/04/16 01:57:12;;;;;;;11.52;8.40;;;7.90;99.90;;;;;;5013110;28;20381;-57
2023/04/16 01:59:38;;;;;;;11.88;8.15;;;7.90;99.90;;;;;;5013391;28;20024;-54
2023/04/16 02:02:09;;;;;;;14.27;8.88;;;7.90;99.90;;;;;;5013616;28;20523;-54
2023/04/16 02:04:37;;;;;;;13.95;8.68;;;8.00;99.90;;;;;;5013470;28;20068;-56
2023/04/16 02:07:04;;;;;;;17.38;8.63;;;7.90;99.90;;;;;;5013337;28;20092;-54
2023/04/16 02:09:30;;;;;;;16.15;8.68;;;7.90;99.90;;;;;;5012923;28;20022;-54
2023/04/16 02:11:55;;;;;;;13.88;8.45;;;8.00;99.90;;;;;;5013145;28;20120;-56
2023/04/16 02:14:24;;;;;;;11.48;7.78;;;7.90;99.90;;;;;;5012997;28;20029;-56
2023/04/16 02:16:50;;;;;;;11.85;8.45;;;8.00;99.90;;;;;;5013446;28;20057;-55
2023/04/16 02:19:16;;;;;;;13.55;8.85;;;8.10;99.90;;;;;;5012899;28;20489;-54
2023/04/16 02:21:42;;;;;;;14.82;8.63;;;8.00;99.90;;;;;;5013179;28;20099;-55
2023/04/16 02:24:08;;;;;;;13.13;8.23;;;8.00;99.90;;;;;;5013042;28;20053;-54
2023/04/16 02:26:33;;;;;;;15.68;8.82;;;8.00;99.90;;;;;;5012895;28;20021;-53
2023/04/16 02:28:59;;;;;;;14.82;8.85;;;8.00;99.90;;;;;;5012336;28;20089;-55
2023/04/16 02:31:27;;;;;;;15.82;8.77;;;8.00;99.90;;;;;;5012406;28;20049;-55
2023/04/16 02:33:53;;;;;;;12.45;8.93;;;8.00;99.90;;;;;;5012748;28;20041;-55
2023/04/16 02:36:19;;;;;;;13.20;8.70;;;7.90;99.90;;;;;;5012115;28;20021;-57
2023/04/16 02:38:45;;;;;;;13.48;8.88;;;7.90;99.90;;;;;;5012552;28;20630;-57
2023/04/16 02:41:10;;;;;;;14.80;9.52;;;7.80;99.90;;;;;;5011657;28;20087;-56
2023/04/16 02:43:36;;;;;;;14.25;8.65;;;7.80;99.90;;;;;;5012400;28;20029;-55
2023/04/16 02:46:01;;;;;;;18.58;9.13;;;7.80;99.90;;;;;;5012408;28;20026;-56
2023/04/16 02:48:27;;;;;;;10.68;7.95;;;7.80;99.90;;;;;;5011954;28;20025;-55
2023/04/16 02:50:53;;;;;;;15.07;8.45;;;7.80;99.90;;;;;;5012163;28;20378;-55
2023/04/16 02:53:18;;;;;;;13.02;8.32;;;7.80;99.90;;;;;;5011966;28;20032;-56
2023/04/16 02:55:54;;;;;;;14.27;8.57;;;7.80;99.90;;;;;;5012352;28;20034;-58
2023/04/16 02:58:21;;;;;;;14.25;8.35;;;7.70;99.90;;;;;;5011980;28;20547;-56
2023/04/16 03:00:47;;;;;;;11.80;8.48;;;7.70;99.90;;;;;;5010672;28;20025;-55
2023/04/16 03:03:13;;;;;;;12.15;8.85;;;7.60;99.90;;;;;;5012162;28;20600;-56
2023/04/16 03:05:38;;;;;;;15.30;9.23;;;7.70;99.90;;;;;;5011920;28;20377;-56
2023/04/16 03:08:05;;;;;;;14.38;9.52;;;7.60;99.90;;;;;;5012008;28;20029;-56
2023/04/16 03:10:31;;;;;;;13.35;8.82;;;7.60;99.90;;;;;;5010499;28;20072;-59
2023/04/16 03:12:56;;;;;;;13.02;8.95;;;7.60;99.90;;;;;;5012047;28;20022;-57
2023/04/16 03:15:22;;;;;;;16.15;9.13;;;7.60;99.90;;;;;;5011923;28;20032;-57
2023/04/16 03:17:48;;;;;;;20.10;9.60;;;7.60;99.90;;;;;;5011595;28;20024;-57
2023/04/16 03:20:15;;;;;;;15.40;9.05;;;7.60;99.90;;;;;;5011822;28;20034;-55
2023/04/16 03:22:41;;;;;;;16.70;8.93;;;7.60;99.90;;;;;;5011548;28;20480;-54
2023/04/16 03:25:07;;;;;;;14.68;9.65;;;7.60;99.90;;;;;;5011972;28;20036;-54
2023/04/16 03:27:33;;;;;;;16.30;10.13;;;7.60;99.90;;;;;;5011634;28;20076;-55
2023/04/16 03:30:00;;;;;;;17.27;9.77;;;7.60;99.90;;;;;;5011649;28;20473;-55
2023/04/16 03:32:25;;;;;;;16.90;9.18;;;7.60;99.90;;;;;;5011588;28;20076;-54
2023/04/16 03:34:51;;;;;;;15.88;9.63;;;7.60;99.90;;;;;;5011464;28;20046;-57
2023/04/16 03:37:17;;;;;;;16.55;9.48;;;7.60;99.90;;;;;;5011519;28;20397;-56
2023/04/16 03:39:43;;;;;;;14.50;10.05;;;7.60;99.90;;;;;;5011565;28;20025;-56
2023/04/16 03:42:08;;;;;;;14.68;9.23;;;7.60;99.90;;;;;;5011492;28;20030;-54
2023/04/16 03:44:34;;;;;;;15.70;8.93;;;7.60;99.90;;;;;;5011317;28;20026;-57
2023/04/16 03:47:00;;;;;;;17.65;10.05;;;7.60;99.90;;;;;;5011132;28;20018;-55
2023/04/16 03:49:25;;;;;;;15.80;8.63;;;7.50;99.90;;;;;;5011271;28;20055;-58
2023/04/16 03:51:51;;;;;;;14.20;8.55;;;7.60;99.90;;;;;;5011288;28;20129;-59
2023/04/16 03:54:17;;;;;;;12.85;9.40;;;7.60;99.90;;;;;;5011223;28;20022;-58
2023/04/16 03:56:42;;;;;;;14.27;8.98;;;7.50;99.90;;;;;;5011155;28;20059;-57
2023/04/16 03:59:08;;;;;;;14.82;8.80;;;7.50;99.90;;;;;;5010918;28;20038;-57
2023/04/16 04:01:34;;;;;;;12.73;8.98;;;7.50;99.90;;;;;;5011207;28;20088;-57
2023/04/16 04:04:00;;;;;;;15.40;8.90;;;7.60;99.90;;;;;;5010825;28;20060;-52
2023/04/16 04:06:26;;;;;;;14.95;8.88;;;7.50;99.90;;;;;;5011038;28;20022;-58
2023/04/16 04:08:52;;;;;;;14.70;9.32;;;7.60;99.90;;;;;;5011042;28;20106;-56
2023/04/16 04:11:18;;;;;;;12.27;9.13;;;7.50;99.90;;;;;;5011200;28;20034;-54
2023/04/16 04:13:43;;;;;;;15.35;9.20;;;7.50;99.90;;;;;;5009831;28;20141;-54
2023/04/16 04:16:09;;;;;;;14.88;8.77;;;7.50;99.90;;;;;;5010843;28;20381;-53
2023/04/16 04:18:35;;;;;;;12.88;8.73;;;7.50;99.90;;;;;;5010794;28;20018;-58
2023/04/16 04:21:07;;;;;;;15.70;8.82;;;7.50;99.90;;;;;;5010750;28;20374;-55
2023/04/16 04:23:33;;;;;;;12.75;7.90;;;7.50;99.90;;;;;;5010944;28;20028;-56
2023/04/16 04:26:02;;;;;;;15.75;8.35;;;7.50;99.90;;;;;;5010990;28;20113;-57
2023/04/16 04:28:28;;;;;;;13.50;8.30;;;7.60;99.90;;;;;;5010962;28;20401;-58
2023/04/16 04:30:54;;;;;;;14.98;8.30;;;7.50;99.90;;;;;;5009413;28;20682;-56
2023/04/16 04:33:19;;;;;;;12.85;8.88;;;7.50;99.90;;;;;;5011225;28;20030;-55
2023/04/16 04:35:45;;;;;;;15.35;8.73;;;7.50;99.90;;;;;;5009879;28;20025;-53
2023/04/16 04:38:10;;;;;;;14.27;9.20;;;7.50;99.90;;;;;;5010766;28;20488;-56
2023/04/16 04:40:36;;;;;;;13.38;9.00;;;7.50;99.90;;;;;;5010778;28;20092;-54
2023/04/16 04:43:02;;;;;;;14.23;8.80;;;7.50;99.90;;;;;;5010691;28;20093;-58
2023/04/16 04:45:27;;;;;;;15.07;9.98;;;7.50;99.90;;;;;;5010745;28;20018;-55
2023/04/16 04:47:53;;;;;;;13.18;8.75;;;7.50;99.90;;;;;;5010253;28;20696;-54
2023/04/16 04:50:18;;;;;;;15.40;8.93;;;7.50;99.90;;;;;;5011125;28;20022;-54
2023/04/16 04:52:44;;;;;;;19.98;9.45;;;7.50;99.90;;;;;;5010938;28;20041;-58
2023/04/16 04:55:10;;;;;;;14.90;9.07;;;7.50;99.90;;;;;;5011422;28;20072;-53
2023/04/16 04:57:35;;;;;;;14.55;9.00;;;7.60;99.90;;;;;;5011432;28;20080;-57
2023/04/16 05:00:03;;;;;;;16.85;9.30;;;7.50;99.90;;;;;;5010711;28;20113;-56
2023/04/16 05:02:28;;;;;;;14.55;10.02;;;7.50;99.90;;;;;;5010303;28;20037;-55
2023/04/16 05:04:54;;;;;;;19.45;9.68;;;7.60;99.90;;;;;;5012059;28;20022;-57
2023/04/16 05:07:20;;;;;;;18.42;9.90;;;7.60;99.90;;;;;;5014192;28;20025;-55
2023/04/16 05:09:46;;;;;;;20.88;10.15;;;7.60;99.90;;;;;;5014307;28;20057;-55
2023/04/16 05:12:11;;;;;;;14.85;9.45;;;7.60;99.90;;;;;;5013940;28;20151;-54
2023/04/16 05:14:37;;;;;;;17.20;10.05;;;7.60;99.90;;;;;;5014177;28;20112;-57
2023/04/16 05:17:03;;;;;;;15.60;10.07;;;7.70;99.90;;;;;;5013894;28;20022;-55
2023/04/16 05:19:28;;;;;;;13.75;9.27;;;7.70;99.90;;;;;;5014139;28;20026;-55
2023/04/16 05:21:54;;;;;;;14.30;9.15;;;7.70;99.90;;;;;;5014054;28;20025;-58
2023/04/16 05:24:20;;;;;;;15.15;9.65;;;7.70;99.90;;;;;;5013813;28;20030;-56
2023/04/16 05:26:45;;;;;;;11.55;8.60;;;7.70;99.90;;;;;;5014027;28;20033;-56
2023/04/16 05:29:11;;;;;;;13.38;8.85;;;7.70;99.90;;;;;;5013657;28;20042;-55
2023/04/16 05:31:37;;;;;;;13.45;8.00;;;7.70;99.90;;;;;;5013358;28;20045;-57
2023/04/16 05:34:02;;;;;;;11.45;8.02;;;7.70;99.90;;;;;;5013805;28;20076;-52
2023/04/16 05:36:28;;;;;;;13.10;8.23;;;7.80;99.90;;;;;;5013567;28;20038;-57
2023/04/16 05:38:53;;;;;;;13.40;7.85;;;7.80;99.90;;;;;;5013776;28;20522;-52
2023/04/16 05:41:20;;;;;;;12.30;8.18;;;7.90;99.90;;;;;;5013318;28;20036;-52
2023/04/16 05:43:45;;;;;;;16.48;9.05;;;7.90;99.90;;;;;;5013582;28;20025;-54
2023/04/16 05:46:11;;;;;;;14.05;8.82;;;8.00;99.90;;;;;;5013141;28;20042;-53
2023/04/16 05:48:36;;;;;;;12.15;8.35;;;8.10;99.90;;;;;;5012195;28;20424;-56
2023/04/16 05:51:02;;;;;;;16.02;8.80;;;8.10;99.90;;;;;;5013086;28;20037;-54
2023/04/16 05:53:28;;;;;;;12.70;8.18;;;8.20;99.90;;;;;;5013314;28;20084;-55
2023/04/16 05:55:53;;;;;;;15.50;8.70;;;8.30;99.90;;;;;;5012978;28;20029;-54
2023/04/16 05:58:19;;;;;;;15.77;9.20;;;8.30;99.90;;;;;;5013029;28;20045;-56
2023/04/16 06:00:44;;;;;;;11.55;8.07;;;8.40;99.90;;;;;;5012974;28;20057;-52
2023/04/16 06:03:10;;;;;;;12.27;8.60;;;8.50;99.90;;;;;;5013066;28;20034;-55
2023/04/16 06:05:35;;;;;;;11.85;7.53;;;8.60;99.90;;;;;;5013137;28;20048;-57
2023/04/16 06:08:01;;;;;;;11.45;7.63;;;8.70;99.90;;;;;;5013003;28;20385;-54
2023/04/16 06:10:27;;;;;;;12.90;8.07;;;8.80;99.90;;;;;;5013119;28;20018;-57
2023/04/16 06:12:53;;;;;;;13.98;7.43;;;8.90;99.90;;;;;;5012734;28;20475;-58
2023/04/16 06:15:19;;;;;;;11.20;6.90;;;9.00;99.90;;;;;;5012543;28;20022;-56
2023/04/16 06:17:44;;;;;;;11.70;7.72;;;9.10;99.90;;;;;;5011889;28;20028;-58
2023/04/16 06:20:11;;;;;;;14.00;7.05;;;9.30;99.90;;;;;;5012738;28;20089;-59
2023/04/16 06:22:36;;;;;;;11.77;6.80;;;9.40;99.90;;;;;;5012470;28;20033;-56
2023/04/16 06:25:02;;;;;;;11.70;7.45;;;9.50;99.90;;;;;;5012675;28;20068;-59
2023/04/16 06:27:29;;;;;;;11.93;7.00;;;9.60;99.90;;;;;;5012431;28;20029;-57
2023/04/16 06:29:56;;;;;;;10.95;7.00;;;9.60;99.90;;;;;;5012657;28;20026;-58
2023/04/16 06:32:21;;;;;;;10.48;7.22;;;9.60;99.90;;;;;;5012628;28;20034;-55
2023/04/16 06:34:47;;;;;;;10.95;7.13;;;9.80;99.90;;;;;;5012586;28;20029;-55
2023/04/16 06:37:12;;;;;;;11.00;7.18;;;9.90;99.90;;;;;;5012616;28;20045;-56
2023/04/16 06:39:38;;;;;;;11.95;6.97;;;10.00;99.90;;;;;;5012472;28;20066;-56
2023/04/16 06:42:04;;;;;;;12.70;7.70;;;10.20;99.90;;;;;;5012571;28;20038;-57
2023/04/16 06:44:29;;;;;;;12.65;7.88;;;10.30;99.90;;;;;;5012344;28;20030;-56
2023/04/16 06:46:55;;;;;;;12.82;8.38;;;10.40;99.90;;;;;;5012654;28;20030;-55
2023/04/16 06:49:20;;;;;;;16.25;8.85;;;10.60;99.90;;;;;;5012691;28;20510;-58
2023/04/16 06:51:46;;;;;;;16.95;7.97;;;10.80;99.90;;;;;;5012111;28;20026;-55
2023/04/16 06:54:12;;;;;;;10.65;7.40;;;11.00;99.90;;;;;;5012318;28;20083;-60
2023/04/16 06:56:37;;;;;;;12.43;7.95;;;11.10;99.90;;;;;;5010877;28;20120;-56
2023/04/16 06:59:03;;;;;;;12.88;8.13;;;11.10;99.90;;;;;;5010415;28;20482;-55
2023/04/16 07:01:32;;;;;;;12.25;7.97;;;11.20;99.90;;;;;;5012238;28;20034;-56
2023/04/16 07:03:57;;;;;;;14.50;8.60;;;11.20;99.90;;;;;;5012071;28;20018;-62
2023/04/16 07:06:23;;;;;;;16.98;9.70;;;11.30;99.90;;;;;;5010548;28;20017;-58
2023/04/16 07:08:49;;;;;;;14.38;8.38;;;11.30;99.90;;;;;;5010580;28;20022;-56
2023/04/16 07:11:15;;;;;;;14.43;9.75;;;11.40;99.90;;;;;;5011924;28;20077;-56
2023/04/16 07:13:40;;;;;;;14.05;9.73;;;11.50;99.90;;;;;;5007879;28;20073;-57
2023/04/16 07:16:06;;;;;;;16.73;10.15;;;11.70;99.90;;;;;;5010696;28;20022;-56
2023/04/16 07:18:32;;;;;;;13.45;9.85;;;11.80;99.90;;;;;;5012033;28;20045;-57
2023/04/16 07:21:01;;;;;;;15.15;10.02;;;11.80;99.90;;;;;;5011506;28;20040;-58
2023/04/16 07:23:26;;;;;;;18.25;9.90;;;12.00;99.90;;;;;;5011378;28;20076;-57
2023/04/16 07:25:52;;;;;;;12.43;8.98;;;12.10;99.90;;;;;;5011542;28;20428;-56
2023/04/16 07:28:18;;;;;;;14.57;8.40;;;12.30;99.90;;;;;;5011167;28;20409;-57
2023/04/16 07:30:43;;;;;;;16.35;9.20;;;12.40;99.90;;;;;;5010342;28;20230;-51
2023/04/16 07:33:09;;;;;;;13.50;8.50;;;12.50;99.90;;;;;;5011609;28;20125;-55
2023/04/16 07:35:35;;;;;;;15.65;9.10;;;12.50;99.90;;;;;;5011718;28;20030;-55
2023/04/16 07:38:01;;;;;;;14.00;8.63;;;12.70;99.90;;;;;;5010314;28;20021;-54
2023/04/16 07:40:26;;;;;;;11.05;8.18;;;12.90;99.90;;;;;;5011549;28;20449;-53
2023/04/16 07:42:53;;;;;;;14.98;8.82;;;13.30;99.90;;;;;;5011097;28;20108;-54
2023/04/16 07:45:18;;;;;;;14.55;8.15;;;13.60;99.90;;;;;;5011215;28;20113;-53
2023/04/16 07:47:44;;;;;;;11.15;7.32;;;13.70;99.90;;;;;;5011246;28;20105;-55
2023/04/16 07:50:11;;;;;;;12.68;7.68;;;13.70;99.90;;;;;;5011254;28;20116;-54
2023/04/16 07:52:40;;;;;;;13.90;7.93;;;14.00;99.90;;;;;;5011200;28;20034;-55
2023/04/16 07:55:06;;;;;;;13.35;7.40;;;14.20;99.90;;;;;;5010916;28;20018;-56
2023/04/16 07:57:32;;;;;;;12.02;7.15;;;14.40;99.90;;;;;;5010774;28;20501;-54
2023/04/16 07:59:58;;;;;;;12.40;7.55;;;14.80;99.90;;;;;;5009929;28;20026;-54
2023/04/16 08:02:23;;;;;;;12.98;6.90;;;15.20;99.90;;;;;;5011130;28;20421;-54
2023/04/16 08:04:49;;;;;;;10.55;5.78;;;15.50;99.90;;;;;;5009779;28;20029;-55
2023/04/16 08:07:15;;;;;;;10.85;6.00;;;15.80;99.90;;;;;;5011196;28;20030;-57
2023/04/16 08:09:48;;;;;;;10.77;6.32;;;16.10;99.90;;;;;;5011705;28;20026;-55
2023/04/16 08:12:15;;;;;;;12.82;6.32;;;16.30;99.90;;;;;;5010962;28;20034;-55
2023/04/16 08:14:41;;;;;;;11.20;5.75;;;16.20;99.90;;;;;;5010986;28;20026;-54
2023/04/16 08:17:06;;;;;;;8.63;5.35;;;16.40;99.60;;;;;;5011139;28;20093;-56
2023/04/16 08:19:32;;;;;;;8.75;5.28;;;16.60;99.90;;;;;;5010906;28;20025;-55
2023/04/16 08:21:58;;;;;;;10.52;4.78;;;16.40;96.90;;;;;;5010834;28;20551;-53
2023/04/16 08:24:24;;;;;;;7.28;4.88;;;16.70;94.00;;;;;;5010624;28;20025;-55
2023/04/16 08:26:49;;;;;;;8.00;4.00;;;17.00;94.80;;;;;;5010516;28;20034;-57
2023/04/16 08:29:16;;;;;;;8.25;4.40;;;17.70;92.90;;;;;;5010444;28;20092;-53
2023/04/16 08:31:42;;;;;;;7.85;4.10;;;18.20;87.40;;;;;;5010704;28;20052;-53
2023/04/16 08:34:10;;;;;;;8.45;4.13;;;18.50;81.50;;;;;;5010607;28;20470;-55
2023/04/16 08:36:36;;;;;;;7.55;3.70;;;19.10;85.40;;;;;;5010802;28;20034;-54
2023/04/16 08:39:01;;;;;;;7.05;3.45;;;19.70;84.90;;;;;;5010875;28;20104;-54
2023/04/16 08:41:31;;;;;;;7.22;3.50;;;20.80;78.10;;;;;;5014562;28;20014;-55
2023/04/16 08:43:59;;;;;;;7.28;3.10;;;21.20;74.10;;;;;;5014290;28;20030;-52
2023/04/16 08:46:25;;;;;;;6.53;3.60;;;22.00;68.90;;;;;;5014650;28;20536;-53
2023/04/16 08:48:56;;;;;;;7.57;3.35;;;22.30;61.80;;;;;;5014823;28;20038;-50
2023/04/16 08:51:23;;;;;;;6.57;3.45;;;21.90;60.60;;;;;;5014215;28;20539;-53
2023/04/16 08:53:52;;;;;;;6.15;3.15;;;21.80;60.60;;;;;;5013822;28;20088;-54
2023/04/16 08:56:21;;;;;;;6.13;3.15;;;22.20;66.90;;;;;;5014336;28;20121;-53
2023/04/16 08:58:50;;;;;;;6.70;3.60;;;22.40;59.20;;;;;;5014219;28;20073;-51
2023/04/16 09:01:17;;;;;;;8.00;3.50;;;22.50;57.70;;;;;;5014467;28;20030;-51
2023/04/16 09:03:47;;;;;;;7.60;3.83;;;22.80;58.60;;;;;;5013997;28;20038;-52
2023/04/16 09:06:15;;;;;;;7.25;3.70;;;22.90;55.60;;;;;;5014122;28;20454;-53
2023/04/16 09:08:43;;;;;;;7.55;3.70;;;22.70;57.90;;;;;;5013928;28;20041;-53
2023/04/16 09:11:08;;;;;;;6.45;3.33;;;23.10;57.80;;;;;;5014049;28;20037;-50
2023/04/16 09:13:36;;;;;;;6.57;3.80;;;24.00;57.20;;;;;;5012897;28;20112;-53
2023/04/16 09:16:03;;;;;;;8.70;3.83;;;24.40;56.10;;;;;;5013974;28;20032;-56
2023/04/16 09:18:30;;;;;;;8.35;4.32;;;24.00;54.80;;;;;;5014008;28;20258;-53
2023/04/16 09:20:56;;;;;;;6.38;3.70;;;23.80;55.20;;;;;;5013852;28;20092;-50
2023/04/16 09:23:22;;;;;;;8.70;4.03;;;24.20;58.50;;;;;;5013307;28;20025;-52
2023/04/16 09:25:47;;;;;;;8.38;4.30;;;25.00;54.40;;;;;;5013499;28;20030;-50
2023/04/16 09:28:43;;;;;;;5.22;3.90;;;25.70;56.00;;;;;;5013445;28;20104;-50
2023/04/16 09:31:09;;;;;;;7.10;3.97;;;26.00;52.70;;;;;;5013537;28;20042;-50
2023/04/16 09:33:35;;;;;;;7.25;4.35;;;26.40;55.00;;;;;;5013805;28;20026;-48
2023/04/16 09:36:01;;;;;;;7.97;4.40;;;25.50;51.30;;;;;;5007303;28;20389;-54
2023/04/16 09:38:51;;;;;;;9.15;4.20;;;25.80;51.70;;;;;;5011132;28;20508;-51
2023/04/16 09:41:17;;;;;;;7.32;4.05;;;25.50;50.50;;;;;;5013560;28;20121;-48
2023/04/16 09:43:57;;;;;;;9.90;4.78;;;24.80;52.00;;;;;;5013498;28;20033;-50
2023/04/16 09:46:40;;;;;;;8.40;4.22;;;24.20;53.20;;;;;;5013223;28;20172;-50
2023/04/16 09:49:14;;;;;;;7.35;4.50;;;24.00;54.60;;;;;;5006400;28;20029;-49
2023/04/16 09:51:45;;;;;;;8.63;5.18;;;23.70;53.70;;;;;;5013101;28;20119;-53
2023/04/16 09:54:11;;;;;;;7.43;4.85;;;22.90;55.30;;;;;;5013108;28;20539;-47
2023/04/16 09:56:45;;;;;;;6.20;4.88;;;22.50;57.30;;;;;;5013200;28;20106;-45
2023/04/16 09:59:17;;;;;;;9.60;4.88;;;22.10;57.40;;;;;;5006623;28;20038;-44
2023/04/16 10:01:45;;;;;;;8.65;4.95;;;22.20;57.50;;;;;;5013428;28;20382;-44
2023/04/16 10:04:11;;;;;;;7.85;4.88;;;22.10;58.80;;;;;;5013057;28;20026;-45
2023/04/16 10:06:36;;;;;;;8.43;4.75;;;22.40;59.20;;;;;;5012747;28;20037;-48
2023/04/16 10:09:06;;;;;;;8.68;4.90;;;23.10;59.50;;;;;;5013057;28;20065;-46
2023/04/16 10:11:32;;;;;;;9.68;4.57;;;23.20;55.70;;;;;;5012994;28;20049;-43
2023/04/16 10:13:58;;;;;;;7.63;4.15;;;23.10;57.40;;;;;;5013027;28;20022;-45
2023/04/16 10:16:24;;;;;;;7.30;4.55;;;23.40;59.10;;;;;;5013019;28;20041;-45
2023/04/16 10:18:51;;;;;;;7.53;4.47;;;23.40;61.10;;;;;;5013034;28;20026;-46
2023/04/16 10:21:18;;;;;;;8.45;4.40;;;23.50;56.90;;;;;;5011476;28;20115;-46
2023/04/16 10:23:43;;;;;;;5.70;3.90;;;23.60;55.50;;;;;;5011461;28;20546;-45
2023/04/16 10:26:09;;;;;;;6.45;4.20;;;23.50;55.70;;;;;;5011643;28;20153;-45
2023/04/16 10:28:36;;;;;;;7.85;4.20;;;23.80;55.60;;;;;;5012200;28;20117;-49
2023/04/16 10:31:05;;;;;;;8.65;3.78;;;23.90;54.60;;;;;;5011686;28;20030;-44
2023/04/16 10:33:32;;;;;;;;;;;23.70;55.00;;;;;;5011317;28;20033;-45
2023/04/16 10:36:22;;;;;;;7.13;3.78;;;23.80;57.10;;;;;;5012061;28;20380;-43
2023/04/16 10:38:52;;;;;;;7.60;3.72;;;23.70;55.00;;;;;;5012665;28;20401;-49
2023/04/16 10:41:21;;;;;;;6.97;4.13;;;23.20;57.00;;;;;;5012525;28;21405;-42
2023/04/16 10:43:50;;;;;;;5.22;3.40;;;22.80;60.10;;;;;;5012546;28;20037;-44
2023/04/16 10:46:40;;;;;;;7.28;4.78;;;22.30;59.20;;;;;;5012318;28;20084;-45
2023/04/16 10:49:13;;;;;;;6.78;3.75;;;21.90;58.70;;;;;;5012664;28;20228;-52
2023/04/16 10:51:40;;;;;;;6.28;3.50;;;21.40;61.00;;;;;;5012303;28;20096;-46
2023/04/16 10:54:10;;;;;;;6.07;3.08;;;21.50;59.30;;;;;;5012446;28;20022;-48
2023/04/16 10:56:36;;;;;;;6.18;2.65;;;21.40;59.70;;;;;;5011932;28;20026;-44
2023/04/16 10:59:06;;;;;;;5.60;3.15;;;20.90;60.90;;;;;;5011765;28;20037;-43
2023/04/16 11:01:33;;;;;;;10.75;7.53;;;20.50;62.70;;;;;;5012205;28;20099;-44
2023/04/16 11:04:00;;;;;;;8.85;5.88;;;20.40;60.90;;;;;;5011769;28;20022;-45
2023/04/16 11:06:27;;;;;;;5.38;3.10;;;20.30;60.10;;;;;;5012150;28;20033;-44
2023/04/16 11:08:53;;;;;;;7.53;3.83;;;20.10;60.00;;;;;;5012306;28;20020;-44
2023/04/16 11:11:21;;;;;;;7.30;3.83;;;19.80;62.70;;;;;;5012056;28;20042;-47
2023/04/16 11:13:46;;;;;;;7.20;3.90;;;19.70;62.50;;;;;;5010932;28;20026;-56
2023/04/16 11:16:13;;;;;;;8.98;5.72;;;19.60;62.80;;;;;;5011866;28;20018;-44
2023/04/16 11:18:40;;;;;;;8.10;4.53;;;19.50;63.50;;;;;;5012057;28;20072;-51
2023/04/16 11:21:11;;;;;;;8.38;5.25;;;19.40;62.20;;;;;;5011864;28;20045;-45
2023/04/16 11:23:50;;;;;;;6.85;3.90;;;19.20;65.10;;;;;;5011780;28;20033;-44
2023/04/16 11:26:23;;;;;;;6.00;2.83;;;19.20;65.60;;;;;;5011627;28;20218;-44
2023/04/16 11:28:49;;;;;;;7.70;3.28;;;19.40;63.00;;;;;;5011828;28;20034;-45
2023/04/16 11:31:15;;;;;;;4.82;2.92;;;19.90;62.10;;;;;;5011487;28;20034;-45
2023/04/16 11:33:42;;;;;;;4.93;2.70;;;20.40;61.40;;;;;;5011578;28;20025;-44
2023/04/16 11:36:07;;;;;;;6.57;3.55;;;20.70;60.40;;;;;;5011329;28;20113;-45
2023/04/16 11:38:37;;;;;;;7.28;3.50;;;21.10;64.20;;;;;;5011949;28;20068;-48
2023/04/16 11:41:03;;;;;;;6.57;3.90;;;21.20;57.90;;;;;;5011564;28;20084;-45
2023/04/16 11:43:28;;;;;;;6.57;3.65;;;21.00;59.70;;;;;;5011644;28;20578;-45
2023/04/16 11:46:01;;;;;;;6.35;3.55;;;20.70;63.10;;;;;;5009719;28;20053;-44
2023/04/16 11:48:53;;;;;;;5.53;3.58;;;20.50;62.90;;;;;;5009442;28;20546;-45
2023/04/16 11:51:19;;;;;;;7.05;3.83;;;20.30;65.20;;;;;;5011044;28;20030;-43
2023/04/16 11:53:51;;;;;;;7.72;3.60;;;20.10;61.20;;;;;;5011396;28;20029;-48
2023/04/16 11:56:27;;;;;;;6.35;3.70;;;20.10;62.60;;;;;;5009939;28;20061;-44
2023/04/16 11:59:08;;;;;;;6.40;4.35;;;20.10;65.20;;;;;;5010321;28;20100;-47
2023/04/16 12:01:35;;;;;;;8.98;4.18;;;20.00;64.60;;;;;;5011179;28;20531;-46
2023/04/16 12:04:03;;;;;;;6.63;3.80;;;19.90;64.80;;;;;;5011123;28;20050;-44
2023/04/16 12:06:28;;;;;;;5.47;3.60;;;19.70;64.70;;;;;;5011430;28;20022;-44
2023/04/16 12:08:54;;;;;;;5.57;3.63;;;19.20;67.90;;;;;;4997732;28;20080;-44
2023/04/16 12:11:20;;;;;;;9.48;4.47;;;19.20;67.00;;;;;;5007150;28;20088;-51
2023/04/16 12:14:09;;;;;;;12.18;5.57;;;19.20;70.70;;;;;;5010683;28;20036;-45
2023/04/16 12:16:34;;;;;;;9.23;5.88;;;19.20;73.40;;;;;;5011094;28;20026;-47
2023/04/16 12:19:02;;;;;;;9.10;5.60;;;19.10;71.80;;;;;;5010640;28;20505;-47
2023/04/16 12:21:45;;;;;;;7.43;5.43;;;19.10;73.20;;;;;;5010900;28;20489;-47
2023/04/16 12:24:13;;;;;;;11.07;6.13;;;19.20;74.20;;;;;;5009080;28;20421;-45
2023/04/16 12:26:54;;;;;;;9.15;6.00;;;19.10;75.90;;;;;;5010333;28;20529;-44
2023/04/16 12:29:25;;;;;;;11.20;6.15;;;19.10;73.40;;;;;;5007182;28;20050;-45
2023/04/16 12:31:52;;;;;;;10.07;5.35;;;19.00;75.20;;;;;;5010431;28;20042;-48
2023/04/16 12:34:19;;;;;;;12.48;5.32;;;18.80;76.10;;;;;;5009305;28;20025;-45
2023/04/16 12:36:46;;;;;;;8.32;5.10;;;18.80;74.40;;;;;;5010288;28;20507;-44
2023/04/16 12:39:13;;;;;;;10.80;5.40;;;18.90;74.30;;;;;;5010993;28;20026;-47
2023/04/16 12:41:42;;;;;;;8.68;4.82;;;18.80;74.10;;;;;;5010298;28;20030;-43
2023/04/16 12:44:15;;;;;;;10.00;5.30;;;18.70;75.20;;;;;;5010571;28;20484;-45